createdAt,value
2023-01-19T01:49:40.913Z,98541.19
2023-01-19T02:04:50.865Z,98432.94
2023-01-19T02:19:52.674Z,98479.28
2023-01-19T02:34:55.403Z,98602.22
2023-01-19T02:49:58.928Z,98703.34
2023-01-19T03:05:22.738Z,98799.19
2023-01-19T03:20:25.735Z,98824.63
2023-01-19T03:35:31.977Z,98898.13
2023-01-19T03:50:34.231Z,98957.13
2023-01-19T04:05:37.851Z,99000.31
2023-01-19T04:20:39.695Z,99047.50
2023-01-19T04:35:42.557Z,99076.06
2023-01-19T04:50:45.190Z,99111.97
2023-01-19T05:05:47.069Z,99165.63
2023-01-19T05:20:48.853Z,99220.53
2023-01-19T05:35:51.668Z,99220.78
2023-01-19T05:50:58.459Z,99228.91
2023-01-19T06:06:01.050Z,99242.88
2023-01-19T06:21:07.903Z,99281.63
2023-01-19T06:36:09.844Z,99310.66
2023-01-19T06:51:11.989Z,99339.72
2023-01-19T07:06:13.803Z,99362.19
2023-01-19T07:21:15.826Z,99409.72
2023-01-19T14:22:04.095Z,98877.22
2023-01-19T14:37:21.604Z,99073.78
2023-01-19T14:52:34.245Z,99153.47
2023-01-19T17:33:10.266Z,98970.66
2023-01-19T17:48:13.516Z,99207.78
2023-01-19T18:03:15.849Z,99274.50
2023-01-19T18:18:18.444Z,99303.25
2023-01-19T18:33:21.022Z,99366.66
2023-01-19T18:48:23.063Z,99417.06
2023-01-19T19:03:25.385Z,99436.91
2023-01-19T19:18:27.172Z,99431.88
2023-01-19T19:33:29.235Z,99438.38
2023-01-19T19:48:31.144Z,99431.88
2023-01-19T20:03:33.137Z,99452.28
2023-01-19T20:18:36.920Z,99479.81
2023-01-19T20:33:39.752Z,99519.63
2023-01-19T20:48:41.692Z,99544.16
2023-01-19T21:03:43.936Z,99529.81
2023-01-19T21:18:45.732Z,99540.22
2023-01-19T21:33:49.655Z,99575.94
2023-01-19T21:48:51.663Z,99605.69
2023-01-19T22:03:55.174Z,99567.03
2023-01-19T22:19:01.145Z,99569.13
2023-01-19T22:34:03.604Z,99593.25
2023-01-19T22:49:07.636Z,99596.09
2023-01-19T23:04:13.497Z,99632.16
2023-01-19T23:19:17.306Z,99655.69
2023-01-19T23:34:19.788Z,99669.78
2023-01-19T23:49:21.915Z,99679.84
